Greeley West High School, Colorado
Current Conditions -  °F | °C
As of 1:55 AM on Thursday 23 Oct 2014 (Local Time) from KGXY Reporting Station
Clear Clear  
Wind Chill: 33°   Ceiling: Unl
Heat Index: 37°   Visibility: 10mi
Dew Point: 28°   Wind: 6mph
Humidity: 70%   Direction: 340°NNW
Pressure: 30.14"   Gusts: NA
Location:  40.41412°N, 104.7064°W
Report Text: KGXY 230755Z AUTO 34005KT 10SM CLR 03/M02 A3014 RMK AO1
Loading
Personal Weather Stations






























Interactive Weather Map New forecast layout! Learn more

10-Day Weather Forecast

Advertisements
Track Severe Weather on mobile